Time,TemperatureF,DewpointF,PressureIn,WindDirection,WindDirectionDegrees,WindSpeedMPH,WindSpeedGustMPH,Humidity,HourlyPrecipIn,Conditions,Clouds,dailyrainin,SoftwareType,DateUTC
2013-07-28 00:00:00,62.4,61.0,29.92,SSE,158,0.0,1.0,95,0.00,,---,0.00,VWS V14.01,2013-07-28 04:00:00,
2013-07-28 00:30:00,62.1,60.7,29.91,SSE,158,0.0,0.0,95,0.00,,---,0.00,VWS V14.01,2013-07-28 04:30:00,
2013-07-28 01:00:00,62.4,61.0,29.92,SSE,158,0.0,1.0,95,0.00,,---,0.00,VWS V14.01,2013-07-28 05:00:00,
2013-07-28 01:30:00,59.3,57.9,29.92,SSE,158,0.0,0.0,95,0.00,,---,0.00,VWS V14.01,2013-07-28 05:30:00,
2013-07-28 02:00:00,60.9,59.5,29.92,SSE,158,0.0,0.0,95,0.00,,---,0.00,VWS V14.01,2013-07-28 06:00:00,
2013-07-28 02:30:00,58.9,57.8,29.90,SSE,158,0.0,0.0,96,0.00,,---,0.00,VWS V14.01,2013-07-28 06:30:00,
2013-07-28 03:00:00,59.0,58.4,29.91,SSE,158,0.0,1.0,98,0.00,,---,0.00,VWS V14.01,2013-07-28 07:00:00,
2013-07-28 03:30:00,59.1,58.0,29.90,North,0,0.0,6.0,96,0.00,,---,0.00,VWS V14.01,2013-07-28 07:30:00,
2013-07-28 04:00:00,59.3,58.2,29.90,NW,315,0.0,3.0,96,0.00,,---,0.00,VWS V14.01,2013-07-28 08:00:00,
2013-07-28 04:30:00,59.1,58.0,29.89,North,0,0.0,3.0,96,0.00,,---,0.00,VWS V14.01,2013-07-28 08:30:00,
2013-07-28 05:00:00,59.1,58.0,29.90,NNE,22,0.0,5.0,96,0.00,,---,0.00,VWS V14.01,2013-07-28 09:00:00,
2013-07-28 05:30:00,59.0,57.6,29.91,North,0,0.0,3.0,95,0.00,,---,0.00,VWS V14.01,2013-07-28 09:30:00,
2013-07-28 06:00:00,58.6,57.5,29.92,North,0,0.0,4.0,96,0.00,,---,0.00,VWS V14.01,2013-07-28 10:00:00,
2013-07-28 06:30:00,59.0,57.6,29.91,North,0,0.0,3.0,95,0.00,,---,0.00,VWS V14.01,2013-07-28 10:30:00,
2013-07-28 07:00:00,57.9,56.5,29.95,North,0,0.0,3.0,95,0.00,,---,0.00,VWS V14.01,2013-07-28 11:00:00,
2013-07-28 07:30:00,58.9,57.5,29.94,NE,45,0.0,4.0,95,0.00,,---,0.00,VWS V14.01,2013-07-28 11:30:00,
2013-07-28 08:00:00,59.9,58.2,29.94,North,0,1.0,11.0,94,0.00,,---,0.00,VWS V14.01,2013-07-28 12:00:00,
2013-07-28 08:30:00,62.4,59.1,29.95,North,0,0.0,9.0,89,0.00,,---,0.00,VWS V14.01,2013-07-28 12:30:00,
2013-07-28 09:00:00,63.9,60.0,29.96,NNW,338,1.0,15.0,87,0.00,,---,0.00,VWS V14.01,2013-07-28 13:00:00,
2013-07-28 09:30:00,62.4,59.1,29.95,North,0,0.0,9.0,89,0.00,,---,0.00,VWS V14.01,2013-07-28 13:30:00,
2013-07-28 10:00:00,66.2,60.9,29.94,North,0,1.0,8.0,83,0.00,,---,0.00,VWS V14.01,2013-07-28 14:00:00,
2013-07-28 10:30:00,66.9,60.5,29.95,NNE,22,1.0,6.0,80,0.00,,---,0.00,VWS V14.01,2013-07-28 14:30:00,
2013-07-28 11:00:00,66.7,60.7,29.96,NNE,22,1.0,10.0,81,0.00,,---,0.00,VWS V14.01,2013-07-28 15:00:00,
2013-07-28 11:30:00,67.7,61.7,29.96,NNE,22,1.0,10.0,81,0.00,,---,0.00,VWS V14.01,2013-07-28 15:30:00,
2013-07-28 12:00:00,66.7,60.7,29.96,NNE,22,1.0,10.0,81,0.00,,---,0.00,VWS V14.01,2013-07-28 16:00:00,
2013-07-28 12:30:00,69.7,60.3,29.97,NNE,22,1.0,6.0,72,0.00,,---,0.00,VWS V14.01,2013-07-28 16:30:00,
2013-07-28 13:00:00,70.8,60.5,29.96,SSW,202,1.0,9.0,70,0.00,,---,0.00,VWS V14.01,2013-07-28 17:00:00,
2013-07-28 13:30:00,69.7,60.3,29.97,NNE,22,1.0,6.0,72,0.00,,---,0.00,VWS V14.01,2013-07-28 17:30:00,
2013-07-28 14:00:00,71.7,61.8,29.95,North,0,1.0,10.0,71,0.00,,---,0.00,VWS V14.01,2013-07-28 18:00:00,
2013-07-28 14:30:00,72.0,63.7,29.96,North,0,0.0,12.0,75,0.00,,---,0.00,VWS V14.01,2013-07-28 18:30:00,
2013-07-28 15:00:00,72.1,64.1,29.94,North,0,1.0,10.0,76,0.00,,---,0.00,VWS V14.01,2013-07-28 19:00:00,
2013-07-28 15:30:00,72.0,63.7,29.96,North,0,0.0,12.0,75,0.00,,---,0.00,VWS V14.01,2013-07-28 19:30:00,
2013-07-28 16:00:00,72.3,60.7,29.93,North,0,0.0,5.0,67,0.00,,---,0.00,VWS V14.01,2013-07-28 20:00:00,
2013-07-28 16:30:00,73.2,60.3,29.93,WSW,248,0.0,5.0,64,0.00,,---,0.00,VWS V14.01,2013-07-28 20:30:00,
2013-07-28 17:00:00,72.3,60.7,29.93,North,0,0.0,5.0,67,0.00,,---,0.00,VWS V14.01,2013-07-28 21:00:00,
2013-07-28 17:30:00,73.2,60.3,29.93,WSW,248,0.0,5.0,64,0.00,,---,0.00,VWS V14.01,2013-07-28 21:30:00,
2013-07-28 18:00:00,70.8,58.5,29.95,North,0,0.0,4.0,65,0.00,,---,0.00,VWS V14.01,2013-07-28 22:00:00,
2013-07-28 18:30:00,70.4,60.2,29.97,North,0,0.0,11.0,70,0.00,,---,0.00,VWS V14.01,2013-07-28 22:30:00,
2013-07-28 19:00:00,68.9,60.7,29.97,North,0,0.0,1.0,75,0.00,,---,0.00,VWS V14.01,2013-07-28 23:00:00,
2013-07-28 19:30:00,67.4,60.0,29.98,North,0,0.0,0.0,77,0.00,,---,0.00,VWS V14.01,2013-07-28 23:30:00,
2013-07-28 20:00:00,68.9,60.7,29.97,North,0,0.0,1.0,75,0.00,,---,0.00,VWS V14.01,2013-07-29 00:00:00,
2013-07-28 20:30:00,63.3,59.4,30.00,North,0,0.0,0.0,87,0.00,,---,0.00,VWS V14.01,2013-07-29 00:30:00,
2013-07-28 21:00:00,61.4,58.5,30.01,North,0,0.0,0.0,90,0.00,,---,0.00,VWS V14.01,2013-07-29 01:00:00,
2013-07-28 21:30:00,60.1,57.8,30.01,North,0,0.0,0.0,92,0.00,,---,0.00,VWS V14.01,2013-07-29 01:30:00,
2013-07-28 22:00:00,59.4,57.4,30.03,North,0,0.0,0.0,93,0.00,,---,0.00,VWS V14.01,2013-07-29 02:00:00,
2013-07-28 22:30:00,59.3,57.0,30.03,North,0,0.0,4.0,92,0.00,,---,0.00,VWS V14.01,2013-07-29 02:30:00,
2013-07-28 23:00:00,59.4,57.4,30.03,North,0,0.0,0.0,93,0.00,,---,0.00,VWS V14.01,2013-07-29 03:00:00,
2013-07-28 23:30:00,57.8,56.1,30.04,North,0,0.0,2.0,94,0.00,,---,0.00,VWS V14.01,2013-07-29 03:30:00,